createdAt,value
2022-09-14T00:01:28.117Z,99294.95
2022-09-14T00:03:57.909Z,99296.45
2022-09-14T00:06:25.750Z,99294.33
2022-09-14T00:08:55.036Z,99294.06
2022-09-14T00:12:34.716Z,99290.63
2022-09-14T00:15:02.576Z,99287.77
2022-09-14T00:17:31.169Z,99291.59
2022-09-14T00:19:58.515Z,99289.73
2022-09-14T00:22:26.053Z,99295.52
2022-09-14T00:24:53.534Z,99291.92
2022-09-14T00:27:20.764Z,99287.83
2022-09-14T00:29:49.154Z,99283.09
2022-09-14T00:32:16.644Z,99286.23
2022-09-14T00:34:43.959Z,99281.54
2022-09-14T00:37:12.654Z,99275.04
2022-09-14T00:39:40.014Z,99274.56
2022-09-14T00:42:07.368Z,99270.35
2022-09-14T00:44:34.717Z,99270.67
2022-09-14T00:47:03.186Z,99269.77
2022-09-14T00:49:38.935Z,99275.52
2022-09-14T00:52:10.294Z,99276.83
2022-09-14T00:54:41.836Z,99276.23
2022-09-14T00:57:09.211Z,99273.25
2022-09-14T00:59:38.812Z,99273.44
2022-09-14T01:02:09.416Z,99273.38
2022-09-14T01:04:37.313Z,99271.32
2022-09-14T01:07:19.610Z,99272.33
2022-09-14T01:10:11.352Z,99272.36
2022-09-14T01:13:06.451Z,99269.81
2022-09-14T01:15:42.709Z,99262.95
2022-09-14T01:18:21.839Z,99268.84
2022-09-14T01:21:08.051Z,99273.63
2022-09-14T01:23:56.185Z,99277.33
2022-09-14T01:26:56.192Z,99277.95
2022-09-14T01:29:46.165Z,99272.12
2022-09-14T01:32:27.614Z,99273.56
2022-09-14T01:35:03.729Z,99272.89
2022-09-14T01:37:51.265Z,99275.59
2022-09-14T01:40:18.463Z,99279.94
2022-09-14T01:42:49.950Z,99282.80
2022-09-14T01:45:19.320Z,99278.56
2022-09-14T01:47:49.823Z,99273.04
2022-09-14T01:50:25.295Z,99269.16
2022-09-14T01:52:57.734Z,99266.98
2022-09-14T01:55:29.767Z,99260.21
2022-09-14T01:58:12.369Z,99252.57
2022-09-14T02:00:46.188Z,99251.08
2022-09-14T02:03:17.807Z,99253.13
2022-09-14T02:06:00.912Z,99256.13
2022-09-14T02:08:30.259Z,99249.88
2022-09-14T02:10:58.315Z,99250.18
2022-09-14T02:13:26.196Z,99251.95
2022-09-14T02:15:54.640Z,99253.35
2022-09-14T02:18:22.449Z,99248.91
2022-09-14T02:20:54.687Z,99246.74
2022-09-14T02:23:22.489Z,99244.79
2022-09-14T02:25:49.852Z,99245.40
2022-09-14T02:28:18.726Z,99240.23
2022-09-14T02:31:21.356Z,99237.34
2022-09-14T02:34:06.289Z,99240.19
2022-09-14T02:36:39.369Z,99240.85
2022-09-14T02:39:28.129Z,99241.70
2022-09-14T02:42:05.410Z,99239.04
2022-09-14T02:45:09.953Z,99241.54
2022-09-14T02:47:56.030Z,99236.89
2022-09-14T02:50:36.182Z,99234.30
2022-09-14T02:53:35.175Z,99232.25
2022-09-14T02:56:08.135Z,99236.93
2022-09-14T02:58:41.021Z,99232.00
2022-09-14T03:01:11.198Z,99235.44
2022-09-14T03:03:39.130Z,99234.05
2022-09-14T03:06:06.783Z,99233.77
2022-09-14T03:08:34.170Z,99238.11
2022-09-14T03:11:02.038Z,99234.40
2022-09-14T03:13:29.170Z,99234.52
2022-09-14T03:15:56.683Z,99237.03
2022-09-14T03:18:23.990Z,99231.86
2022-09-14T03:20:51.349Z,99228.23
2022-09-14T03:23:18.830Z,99228.45
2022-09-14T03:25:46.050Z,99227.25
2022-09-14T03:28:13.737Z,99228.14
2022-09-14T03:30:42.265Z,99224.09
2022-09-14T03:33:09.451Z,99225.29
2022-09-14T03:35:36.690Z,99220.48
2022-09-14T03:38:04.045Z,99219.73
2022-09-14T03:40:31.858Z,99218.51
2022-09-14T03:42:59.149Z,99218.91
2022-09-14T03:45:26.530Z,99217.54
2022-09-14T03:47:53.870Z,99218.22
2022-09-14T03:50:21.431Z,99218.29
2022-09-14T03:52:49.010Z,99219.89
2022-09-14T03:55:16.670Z,99218.66
2022-09-14T03:57:43.900Z,99214.29
2022-09-14T04:00:12.010Z,99219.52
2022-09-14T04:02:40.323Z,99222.73
2022-09-14T04:05:08.126Z,99228.77
2022-09-14T04:07:36.166Z,99224.34
2022-09-14T04:10:03.545Z,99221.75
2022-09-14T04:12:35.001Z,99220.30
2022-09-14T04:15:02.771Z,99211.48
2022-09-14T04:17:30.433Z,99206.64
2022-09-14T04:19:57.671Z,99207.92
2022-09-14T04:22:24.924Z,99215.09
2022-09-14T04:24:52.610Z,99217.43
2022-09-14T04:27:20.150Z,99221.65
2022-09-14T04:29:50.379Z,99218.05
2022-09-14T04:32:17.930Z,99218.20
2022-09-14T04:34:45.289Z,99214.91
2022-09-14T04:37:12.724Z,99206.36
2022-09-14T04:39:39.983Z,99208.65
2022-09-14T04:42:08.771Z,99211.05
2022-09-14T04:44:36.155Z,99216.90
2022-09-14T04:47:03.626Z,99220.95
2022-09-14T04:49:31.670Z,99222.90
2022-09-14T04:51:59.116Z,99223.18
2022-09-14T04:54:28.223Z,99222.42
2022-09-14T04:56:56.284Z,99226.54
2022-09-14T04:59:23.657Z,99232.02
2022-09-14T05:01:51.820Z,99228.84
2022-09-14T05:04:19.489Z,99227.04
2022-09-14T05:06:46.830Z,99231.70
2022-09-14T05:09:16.120Z,99234.25
2022-09-14T05:11:43.810Z,99233.44
2022-09-14T05:14:14.716Z,99231.77
2022-09-14T05:16:43.432Z,99230.15
2022-09-14T05:19:14.285Z,99223.08
2022-09-14T05:21:41.710Z,99220.10
2022-09-14T05:24:15.120Z,99223.17
2022-09-14T05:26:43.940Z,99218.41
2022-09-14T05:29:17.086Z,99229.52
2022-09-14T05:31:44.778Z,99228.29
2022-09-14T05:34:12.796Z,99229.32
2022-09-14T05:36:40.883Z,99229.55
2022-09-14T05:39:08.760Z,99233.48
2022-09-14T05:41:36.011Z,99230.67
2022-09-14T05:44:04.141Z,99226.96
2022-09-14T05:46:31.780Z,99229.92
2022-09-14T05:48:59.113Z,99227.34
2022-09-14T05:51:27.741Z,99223.84
2022-09-14T05:53:57.380Z,99219.84
2022-09-14T05:56:26.818Z,99217.67
2022-09-14T05:58:54.345Z,99215.78
2022-09-14T06:01:26.604Z,99213.67
2022-09-14T06:03:56.066Z,99216.43
2022-09-14T06:06:24.507Z,99216.83
2022-09-14T06:08:56.700Z,99216.84
2022-09-14T06:11:31.511Z,99221.31
2022-09-14T06:13:59.370Z,99220.58
2022-09-14T06:16:28.473Z,99222.13
2022-09-14T06:18:57.673Z,99228.63
2022-09-14T06:21:31.686Z,99230.04
2022-09-14T06:23:59.119Z,99234.15
2022-09-14T06:26:27.019Z,99232.92
2022-09-14T06:28:54.293Z,99224.80
2022-09-14T06:31:22.961Z,99221.15
2022-09-14T06:33:52.030Z,99225.02
2022-09-14T06:36:22.055Z,99223.16
2022-09-14T06:38:50.318Z,99223.85
2022-09-14T06:41:20.802Z,99219.27
2022-09-14T06:43:48.611Z,99218.02
2022-09-14T06:46:23.944Z,99218.35
2022-09-14T06:48:56.959Z,99218.58
2022-09-14T06:51:34.132Z,99223.23
2022-09-14T06:54:02.213Z,99224.64
2022-09-14T06:56:32.430Z,99226.23
2022-09-14T06:59:00.183Z,99224.77
2022-09-14T07:01:28.251Z,99224.24
2022-09-14T07:03:55.710Z,99217.55
2022-09-14T07:06:25.989Z,99216.54
2022-09-14T07:08:53.997Z,99216.20
2022-09-14T07:11:24.139Z,99215.17
2022-09-14T07:13:51.490Z,99216.56
2022-09-14T07:16:18.954Z,99213.71
2022-09-14T07:18:46.391Z,99212.52
2022-09-14T07:21:16.309Z,99211.45
2022-09-14T07:23:46.160Z,99211.68
2022-09-14T07:26:18.810Z,99208.16
2022-09-14T07:28:49.752Z,99203.31
2022-09-14T07:31:26.172Z,99201.05
2022-09-14T07:33:55.709Z,99203.42
2022-09-14T07:36:24.093Z,99206.03
2022-09-14T07:38:53.182Z,99210.95
2022-09-14T07:41:23.017Z,99209.77
2022-09-14T07:43:54.966Z,99211.10
2022-09-14T07:46:22.772Z,99205.11
2022-09-14T07:48:55.930Z,99204.70
2022-09-14T07:51:24.390Z,99204.89
2022-09-14T07:53:51.937Z,99204.30
2022-09-14T07:56:19.316Z,99203.98
2022-09-14T07:58:46.778Z,99206.39
2022-09-14T08:01:20.321Z,99205.95
2022-09-14T08:03:49.265Z,99207.61
2022-09-14T08:06:22.818Z,99208.61
2022-09-14T08:08:51.759Z,99208.77
2022-09-14T08:11:24.030Z,99209.34
2022-09-14T08:13:57.898Z,99205.36
2022-09-14T08:16:26.743Z,99209.80
2022-09-14T08:18:59.087Z,99207.14
2022-09-14T08:21:27.585Z,99209.01
2022-09-14T08:23:54.935Z,99212.27
2022-09-14T08:26:23.613Z,99204.91
2022-09-14T08:28:52.211Z,99206.55
2022-09-14T08:31:22.036Z,99203.61
2022-09-14T08:33:53.478Z,99201.84
2022-09-14T08:36:22.596Z,99200.92
2022-09-14T08:38:49.999Z,99202.42
2022-09-14T08:41:17.895Z,99202.81
2022-09-14T08:43:45.430Z,99203.96
2022-09-14T08:46:36.454Z,99204.81
2022-09-14T08:49:19.212Z,99203.81
2022-09-14T08:51:46.405Z,99200.45
2022-09-14T08:54:13.571Z,99200.16
2022-09-14T08:56:45.102Z,99200.69
2022-09-14T08:59:41.299Z,99199.48
2022-09-14T09:02:22.408Z,99199.38
2022-09-14T09:04:52.648Z,99203.56
2022-09-14T09:07:29.430Z,99201.77
2022-09-14T09:09:57.910Z,99204.43
2022-09-14T09:12:35.590Z,99202.44
2022-09-14T09:15:07.654Z,99203.19
2022-09-14T09:17:41.126Z,99204.60
2022-09-14T09:20:28.681Z,99200.84
2022-09-14T09:23:07.149Z,99194.66
2022-09-14T09:25:45.410Z,99196.44
2022-09-14T09:28:13.289Z,99192.27
2022-09-14T09:30:41.971Z,99194.98
2022-09-14T09:33:22.030Z,99195.59
2022-09-14T09:35:58.581Z,99196.11
2022-09-14T09:38:30.030Z,99191.98
2022-09-14T09:41:00.038Z,99192.16
2022-09-14T09:43:47.965Z,99185.04
2022-09-14T09:46:15.302Z,99183.59
2022-09-14T09:48:44.532Z,99184.10
2022-09-14T09:51:15.351Z,99184.17
2022-09-14T09:53:56.044Z,99182.84
2022-09-14T09:56:29.470Z,99181.15
2022-09-14T09:58:56.810Z,99178.27
2022-09-14T10:01:42.385Z,99178.09
2022-09-14T10:04:17.208Z,99177.36
2022-09-14T10:06:50.110Z,99173.13
2022-09-14T10:09:20.229Z,99173.60
2022-09-14T10:11:49.400Z,99172.40
2022-09-14T10:14:32.732Z,99173.83
2022-09-14T10:17:18.983Z,99172.81
2022-09-14T10:19:54.490Z,99170.14
2022-09-14T10:22:33.510Z,99166.91
2022-09-14T10:25:09.291Z,99167.40
2022-09-14T10:27:42.927Z,99168.68
2022-09-14T10:30:17.555Z,99171.23
2022-09-14T10:32:54.053Z,99170.83
2022-09-14T10:35:24.464Z,99166.50
2022-09-14T10:38:16.352Z,99167.88
2022-09-14T10:40:46.949Z,99163.36
2022-09-14T10:43:18.092Z,99164.15
2022-09-14T10:45:51.772Z,99162.85
2022-09-14T10:48:22.250Z,99160.64
2022-09-14T10:51:12.696Z,99160.36
2022-09-14T10:53:50.102Z,99155.48
2022-09-14T10:56:25.451Z,99150.95
2022-09-14T10:59:06.112Z,99153.22
2022-09-14T11:01:39.184Z,99149.64
2022-09-14T11:04:46.778Z,99150.34
2022-09-14T11:07:18.770Z,99146.36
2022-09-14T11:09:56.151Z,99144.52
2022-09-14T11:12:35.516Z,99142.83
2022-09-14T11:15:38.331Z,99138.80
2022-09-14T11:18:19.550Z,99144.83
2022-09-14T11:21:00.933Z,99143.66
2022-09-14T11:24:04.543Z,99142.09
2022-09-14T11:26:44.090Z,99140.84
2022-09-14T11:29:28.964Z,99140.30
2022-09-14T11:32:22.686Z,99137.10
2022-09-14T11:34:55.280Z,99128.27
2022-09-14T11:37:37.073Z,99131.61
2022-09-14T11:40:27.323Z,99130.24
2022-09-14T11:43:27.312Z,99126.45
2022-09-14T11:46:07.196Z,99118.92
2022-09-14T11:48:43.947Z,99121.52
2022-09-14T11:51:32.942Z,99116.13
2022-09-14T11:54:00.350Z,99110.66
2022-09-14T11:56:30.544Z,99108.34
2022-09-14T11:59:00.301Z,99100.71
2022-09-14T12:01:37.454Z,99098.36
2022-09-14T12:04:07.734Z,99104.27
2022-09-14T12:06:38.109Z,99108.52
2022-09-14T12:09:15.290Z,99108.69
2022-09-14T12:11:45.810Z,99107.16
2022-09-14T12:14:24.940Z,99108.48
2022-09-14T12:17:38.996Z,99110.66
2022-09-14T12:20:29.782Z,99107.86
2022-09-14T12:23:31.250Z,99106.48
2022-09-14T12:25:58.711Z,99107.88
2022-09-14T12:28:38.250Z,99115.29
2022-09-14T12:31:09.713Z,99120.30
2022-09-14T12:33:37.169Z,99114.38
2022-09-14T12:36:11.398Z,99105.10
2022-09-14T12:38:38.830Z,99097.05
2022-09-14T12:41:09.051Z,99093.02
2022-09-14T12:43:36.207Z,99088.88
2022-09-14T12:46:10.627Z,99084.02
2022-09-14T12:48:51.300Z,99081.31
2022-09-14T12:51:31.740Z,99081.54
2022-09-14T12:54:01.972Z,99088.08
2022-09-14T12:56:44.172Z,99093.29
2022-09-14T12:59:25.260Z,99090.62
2022-09-14T13:02:05.189Z,99076.16
2022-09-14T13:04:35.203Z,99069.83
2022-09-14T13:07:06.320Z,99064.44
2022-09-14T13:09:33.918Z,99063.20
2022-09-14T13:12:04.482Z,99067.94
2022-09-14T13:14:47.839Z,99066.06
2022-09-14T13:17:16.569Z,99060.92
2022-09-14T13:19:44.293Z,99058.91
2022-09-14T13:22:22.599Z,99055.40
2022-09-14T13:24:50.293Z,99047.00
2022-09-14T13:27:30.107Z,99041.03
2022-09-14T13:30:02.561Z,99031.68
2022-09-14T13:32:29.976Z,99038.92
2022-09-14T13:34:58.054Z,99036.27
2022-09-14T13:37:25.810Z,99034.55
2022-09-14T13:39:55.668Z,99029.75
2022-09-14T13:42:23.530Z,99028.89
2022-09-14T13:44:51.379Z,99023.89
2022-09-14T13:47:23.539Z,99019.03
2022-09-14T13:49:53.135Z,99017.84
2022-09-14T13:52:25.887Z,99012.35
2022-09-14T13:55:30.246Z,99003.67
2022-09-14T13:58:14.075Z,99004.05
2022-09-14T14:00:58.413Z,99000.23
2022-09-14T14:03:40.180Z,99000.77
2022-09-14T14:06:24.129Z,99002.67
2022-09-14T14:09:11.566Z,99000.38
2022-09-14T14:11:43.754Z,99001.46
2022-09-14T14:14:16.977Z,99000.21
2022-09-14T14:17:12.051Z,98997.00
2022-09-14T14:19:40.900Z,98997.14
2022-09-14T14:22:14.334Z,98994.78
2022-09-14T14:25:02.371Z,98994.83
2022-09-14T14:27:38.131Z,98992.70
2022-09-14T14:30:14.810Z,98994.17
2022-09-14T14:32:42.185Z,98991.13
2022-09-14T14:35:18.282Z,98991.91
2022-09-14T14:37:45.577Z,98990.98
2022-09-14T14:40:13.566Z,98989.72
2022-09-14T14:42:41.515Z,98984.17
2022-09-14T14:45:26.915Z,98976.22
2022-09-14T14:47:55.548Z,98976.74
2022-09-14T14:50:28.136Z,98975.30
2022-09-14T14:52:56.639Z,98977.27
2022-09-14T14:55:26.146Z,98981.91
2022-09-14T14:57:53.387Z,98979.10
2022-09-14T15:00:24.441Z,98978.86
2022-09-14T15:02:51.671Z,98977.36
2022-09-14T15:05:19.569Z,98976.34
2022-09-14T15:07:48.194Z,98978.60
2022-09-14T15:10:17.003Z,98972.60
2022-09-14T15:12:45.393Z,98974.70
2022-09-14T15:15:18.360Z,98974.28
2022-09-14T15:17:45.942Z,98977.98
2022-09-14T15:20:14.237Z,98980.75
2022-09-14T15:22:42.954Z,98978.39
2022-09-14T15:25:11.594Z,98976.55
2022-09-14T15:27:39.154Z,98970.36
2022-09-14T15:30:08.069Z,98970.67
2022-09-14T15:32:35.817Z,98972.23
2022-09-14T15:35:03.274Z,98970.45
2022-09-14T15:37:30.833Z,98971.98
2022-09-14T15:39:58.201Z,98970.40
2022-09-14T15:42:26.353Z,98976.35
2022-09-14T15:44:53.814Z,98975.19
2022-09-14T15:47:21.177Z,98978.80
2022-09-14T15:49:51.690Z,98978.07
2022-09-14T15:52:18.936Z,98977.23
2022-09-14T15:54:46.395Z,98977.35
2022-09-14T15:57:14.059Z,98974.92
2022-09-14T15:59:41.428Z,98970.23
2022-09-14T16:02:10.978Z,98964.04
2022-09-14T16:04:39.320Z,98966.38
2022-09-14T16:07:10.354Z,98966.95
2022-09-14T16:09:40.650Z,98966.11
2022-09-14T16:12:09.576Z,98962.14
2022-09-14T16:14:37.220Z,98962.69
2022-09-14T16:17:05.513Z,98967.20
2022-09-14T16:19:33.250Z,98964.42
2022-09-14T16:22:01.333Z,98964.62
2022-09-14T16:24:29.220Z,98958.42
2022-09-14T16:26:58.393Z,98955.73
2022-09-14T16:29:26.661Z,98954.06
2022-09-14T16:31:54.564Z,98957.99
2022-09-14T16:34:24.582Z,98959.27
2022-09-14T16:36:52.534Z,98957.27
2022-09-14T16:39:25.722Z,98956.66
2022-09-14T16:41:56.849Z,98954.30
2022-09-14T16:44:26.481Z,98954.39
2022-09-14T16:46:55.452Z,98948.46
2022-09-14T16:49:27.289Z,98942.63
2022-09-14T16:51:56.228Z,98940.71
2022-09-14T16:54:25.953Z,98945.09
2022-09-14T16:56:57.349Z,98942.26
2022-09-14T16:59:24.840Z,98942.52
2022-09-14T17:01:54.530Z,98945.19
2022-09-14T17:04:23.043Z,98945.45
2022-09-14T17:06:52.168Z,98945.34
2022-09-14T17:09:28.383Z,98944.58
2022-09-14T17:11:57.068Z,98944.91
2022-09-14T17:14:32.184Z,98946.46
2022-09-14T17:17:00.469Z,98951.89
2022-09-14T17:19:28.654Z,98954.67
2022-09-14T17:21:56.120Z,98951.96
2022-09-14T17:24:24.599Z,98945.88
2022-09-14T17:26:52.040Z,98942.52
2022-09-14T17:29:20.020Z,98944.91
2022-09-14T17:31:47.704Z,98948.84
2022-09-14T17:34:16.993Z,98946.32
2022-09-14T17:36:45.168Z,98944.88
2022-09-14T17:39:13.644Z,98944.15
2022-09-14T17:41:43.057Z,98945.37
2022-09-14T17:44:13.018Z,98948.48
2022-09-14T17:46:50.796Z,98949.91
2022-09-14T17:49:23.824Z,98948.77
2022-09-14T17:51:51.703Z,98945.75
2022-09-14T17:54:20.089Z,98946.45
2022-09-14T17:56:47.831Z,98944.23
2022-09-14T17:59:18.164Z,98941.89
2022-09-14T18:01:45.948Z,98939.77
2022-09-14T18:04:15.939Z,98936.66
2022-09-14T18:06:47.522Z,98943.30
2022-09-14T18:09:22.376Z,98937.23
2022-09-14T18:11:51.120Z,98935.14
2022-09-14T18:14:19.000Z,98929.11
2022-09-14T18:16:46.688Z,98926.11
2022-09-14T18:19:15.205Z,98930.33
2022-09-14T18:24:25.106Z,98923.14
2022-09-14T18:26:52.560Z,98918.08
2022-09-14T18:29:21.862Z,98917.64
2022-09-14T18:31:50.857Z,98913.00
2022-09-14T18:34:18.718Z,98906.91
2022-09-14T18:36:46.565Z,98899.40
2022-09-14T18:39:15.161Z,98900.33
2022-09-14T18:41:44.503Z,98903.66
2022-09-14T18:44:12.539Z,98910.55
2022-09-14T18:46:40.793Z,98910.52
2022-09-14T18:49:08.673Z,98915.89
2022-09-14T18:51:36.677Z,98920.19
2022-09-14T18:54:06.751Z,98921.18
2022-09-14T18:56:35.814Z,98918.26
2022-09-14T18:59:04.888Z,98915.83
2022-09-14T19:01:36.080Z,98917.72
2022-09-14T19:04:05.622Z,98920.54
2022-09-14T19:06:35.389Z,98915.86
2022-09-14T19:09:04.044Z,98915.83
2022-09-14T19:11:32.670Z,98916.45
2022-09-14T19:14:02.970Z,98919.06
2022-09-14T19:16:31.659Z,98915.27
2022-09-14T19:18:59.450Z,98910.34
2022-09-14T19:21:29.539Z,98908.70
2022-09-14T19:24:02.732Z,98911.95
2022-09-14T19:26:33.153Z,98909.31
2022-09-14T19:29:02.764Z,98900.69
2022-09-14T19:31:31.768Z,98888.64
2022-09-14T19:34:01.174Z,98887.14
2022-09-14T19:36:29.722Z,98879.34
2022-09-14T19:38:59.549Z,98875.58
2022-09-14T19:41:26.840Z,98879.80
2022-09-14T19:43:55.240Z,98884.46
2022-09-14T19:46:26.584Z,98884.17
2022-09-14T19:48:54.962Z,98882.85
2022-09-14T19:51:25.983Z,98877.69
2022-09-14T19:53:56.385Z,98872.27
2022-09-14T19:56:29.875Z,98860.10
2022-09-14T19:58:59.915Z,98858.92
2022-09-14T20:01:29.415Z,98863.18
2022-09-14T20:03:58.240Z,98868.02
2022-09-14T20:06:30.349Z,98868.39
2022-09-14T20:09:09.508Z,98871.71
2022-09-14T20:11:38.718Z,98873.33
2022-09-14T20:14:08.077Z,98878.48
2022-09-14T20:16:41.094Z,98876.61
2022-09-14T20:19:17.712Z,98867.11
2022-09-14T20:21:47.214Z,98860.95
2022-09-14T20:24:18.342Z,98860.55
2022-09-14T20:26:50.178Z,98859.74
2022-09-14T20:29:19.088Z,98856.84
2022-09-14T20:31:47.383Z,98853.83
2022-09-14T20:34:16.958Z,98850.50
2022-09-14T20:36:44.725Z,98846.26
2022-09-14T20:39:12.089Z,98843.23
2022-09-14T20:41:40.149Z,98843.09
2022-09-14T20:44:08.221Z,98839.98
2022-09-14T20:46:39.443Z,98839.66
2022-09-14T20:49:12.173Z,98839.28
2022-09-14T20:51:40.641Z,98838.88
2022-09-14T20:54:10.261Z,98837.08
2022-09-14T20:56:38.123Z,98837.13
2022-09-14T20:59:07.919Z,98841.77
2022-09-14T21:01:37.234Z,98839.67
2022-09-14T21:04:08.865Z,98841.46
2022-09-14T21:06:38.400Z,98842.63
2022-09-14T21:09:06.949Z,98838.16
2022-09-14T21:11:35.139Z,98840.13
2022-09-14T21:14:02.799Z,98838.58
2022-09-14T21:16:32.479Z,98840.05
2022-09-14T21:19:05.423Z,98838.02
2022-09-14T21:21:32.924Z,98833.67
2022-09-14T21:24:00.739Z,98831.00
2022-09-14T21:26:29.957Z,98828.70
2022-09-14T21:29:00.952Z,98824.23
2022-09-14T21:31:30.312Z,98824.80
2022-09-14T21:34:08.160Z,98819.56
2022-09-14T21:36:38.625Z,98817.25
2022-09-14T21:39:09.053Z,98811.29
2022-09-14T21:41:37.366Z,98808.86
2022-09-14T21:44:05.579Z,98813.55
2022-09-14T21:46:33.595Z,98814.54
2022-09-14T21:49:01.400Z,98819.13
2022-09-14T21:51:36.605Z,98820.34
2022-09-14T21:54:09.593Z,98820.17
2022-09-14T21:56:39.109Z,98819.88
2022-09-14T21:59:09.351Z,98815.26
2022-09-14T22:01:37.185Z,98804.45
2022-09-14T22:04:05.284Z,98806.15
2022-09-14T22:06:33.246Z,98811.06
2022-09-14T22:09:01.524Z,98809.40
2022-09-14T22:11:34.217Z,98799.41
2022-09-14T22:14:05.280Z,98789.23
2022-09-14T22:16:34.396Z,98784.43
2022-09-14T22:19:07.207Z,98786.05
2022-09-14T22:21:37.701Z,98787.07
2022-09-14T22:24:08.257Z,98782.98
2022-09-14T22:26:36.662Z,98781.94
2022-09-14T22:29:04.409Z,98782.58
2022-09-14T22:31:33.071Z,98780.48
2022-09-14T22:34:00.258Z,98782.39
2022-09-14T22:36:28.110Z,98780.25
2022-09-14T22:38:57.104Z,98777.64
2022-09-14T22:41:26.521Z,98778.71
2022-09-14T22:43:54.695Z,98778.76
2022-09-14T22:46:23.965Z,98781.77
2022-09-14T22:48:52.217Z,98778.85
2022-09-14T22:51:23.528Z,98773.12
2022-09-14T22:53:51.619Z,98767.57
2022-09-14T22:56:24.850Z,98763.56
2022-09-14T22:58:52.138Z,98768.94
2022-09-14T23:01:28.465Z,98769.50
2022-09-14T23:03:58.263Z,98770.55
2022-09-14T23:06:35.293Z,98771.60
2022-09-14T23:09:03.317Z,98761.80
2022-09-14T23:11:30.834Z,98760.20
2022-09-14T23:13:59.294Z,98751.17
2022-09-14T23:16:29.605Z,98748.13
2022-09-14T23:19:02.092Z,98743.06
2022-09-14T23:21:31.493Z,98743.36
2022-09-14T23:24:01.221Z,98750.42
2022-09-14T23:26:28.875Z,98755.02
2022-09-14T23:29:03.440Z,98760.59
2022-09-14T23:31:32.521Z,98757.90
2022-09-14T23:34:02.903Z,98757.47
2022-09-14T23:36:30.435Z,98760.31
2022-09-14T23:38:57.833Z,98758.17
2022-09-14T23:41:27.337Z,98761.73
2022-09-14T23:43:55.194Z,98761.30
2022-09-14T23:46:22.648Z,98758.65
2022-09-14T23:48:50.034Z,98762.27
2022-09-14T23:51:17.407Z,98753.36
2022-09-14T23:53:45.754Z,98748.98
2022-09-14T23:56:13.521Z,98746.48
2022-09-14T23:58:44.432Z,98750.77
